Time;durP1;ratioP1;P1;durP2;ratioP2;P2;SDS_P1;SDS_P2;PMS_P1;PMS_P2;Temp;Humidity;BMP_temperature;BMP_pressure;BME280_temperature;BME280_humidity;BME280_pressure;Samples;Min_cycle;Max_cycle;Signal;HPM_P1;HPM_P2
2023/10/23 00:00:11;;;;;;;;;;;;;;;26.86;37.21;100655.44;5068537;28;993;-43
2023/10/23 00:02:38;;;;;;;;;;;;;;;26.89;37.33;100662.34;5056590;28;2317;-43
2023/10/23 00:05:04;;;;;;;;;;;;;;;26.93;37.17;100647.44;5058756;28;1146;-43
2023/10/23 00:07:30;;;;;;;;;;;;;;;27.00;36.54;100653.78;5064562;28;996;-43
2023/10/23 00:09:55;;;;;;;;;;;;;;;27.08;36.08;100652.03;5072626;28;1126;-43
2023/10/23 00:12:21;;;;;;;;;;;;;;;27.02;36.11;100657.19;5075879;28;1101;-44
2023/10/23 00:14:46;;;;;;;;;;;;;;;27.21;35.56;100660.34;5078399;28;995;-43
2023/10/23 00:17:12;;;;;;;;;;;;;;;27.03;36.59;100658.00;5079603;28;1038;-43
2023/10/23 00:19:37;;;;;;;;;;;;;;;27.15;35.88;100655.69;5064706;28;1170;-42
2023/10/23 00:22:03;;;;;;;;;;;;;;;27.14;36.25;100652.13;5069379;28;1914;-43
2023/10/23 00:24:28;;;;;;;;;;;;;;;27.11;36.21;100651.69;5065782;28;1158;-45
2023/10/23 00:26:54;;;;;;;;;;;;;;;26.93;36.50;100647.44;5079553;28;1078;-43
2023/10/23 00:29:19;;;;;;;;;;;;;;;26.87;36.42;100659.81;5078948;28;1050;-43
2023/10/23 00:31:45;;;;;;;;;;;;;;;26.99;35.97;100652.09;5070992;28;1095;-43
2023/10/23 00:34:10;;;;;;;;;;;;;;;26.97;36.12;100661.41;5079053;28;1745;-45
2023/10/23 00:36:36;;;;;;;;;;;;;;;26.80;36.67;100664.28;5061622;28;1095;-42
2023/10/23 00:39:01;;;;;;;;;;;;;;;26.83;36.40;100655.81;5058575;28;1007;-42
2023/10/23 00:41:27;;;;;;;;;;;;;;;26.74;36.82;100659.63;5059601;28;1024;-43
2023/10/23 00:43:52;;;;;;;;;;;;;;;26.77;36.75;100657.38;5072753;28;1983;-43
2023/10/23 00:46:18;;;;;;;;;;;;;;;26.87;36.28;100662.53;5050433;28;1271;-43
2023/10/23 00:48:44;;;;;;;;;;;;;;;26.81;36.67;100665.13;5078634;28;1059;-40
2023/10/23 00:51:10;;;;;;;;;;;;;;;26.97;35.94;100670.34;5060934;28;1086;-42
2023/10/23 00:53:36;;;;;;;;;;;;;;;27.07;35.93;100671.97;5058294;28;1071;-41
2023/10/23 00:56:02;;;;;;;;;;;;;;;26.99;36.20;100671.00;5061077;28;1111;-43
2023/10/23 00:58:28;;;;;;;;;;;;;;;26.93;36.65;100670.88;5045028;28;2318;-43
2023/10/23 01:00:54;;;;;;;;;;;;;;;26.97;36.07;100664.13;5067450;28;1087;-44
2023/10/23 01:03:19;;;;;;;;;;;;;;;27.08;35.69;100669.09;5063050;28;2422;-43
2023/10/23 01:05:45;;;;;;;;;;;;;;;27.05;36.01;100657.81;5068272;28;1128;-43
2023/10/23 01:08:10;;;;;;;;;;;;;;;26.95;36.28;100663.44;5063118;28;1151;-43
2023/10/23 01:10:36;;;;;;;;;;;;;;;26.87;36.34;100657.13;5058899;28;1047;-41
2023/10/23 01:13:08;;;;;;;;;;;;;;;27.07;36.24;100664.72;5074064;28;1136;-43
2023/10/23 01:15:34;;;;;;;;;;;;;;;26.94;36.26;100670.72;5050714;28;1082;-43
2023/10/23 01:18:02;;;;;;;;;;;;;;;26.95;36.03;100675.09;5071895;28;1289;-44
2023/10/23 01:20:27;;;;;;;;;;;;;;;27.02;35.92;100677.94;5044278;28;1015;-44
2023/10/23 01:22:57;;;;;;;;;;;;;;;26.96;36.11;100673.25;5047074;28;1910;-43
2023/10/23 01:25:22;;;;;;;;;;;;;;;27.00;36.37;100669.97;5067334;28;1047;-43
2023/10/23 01:27:48;;;;;;;;;;;;;;;26.89;36.35;100673.13;5075227;28;1191;-42
2023/10/23 01:30:13;;;;;;;;;;;;;;;26.93;36.17;100678.97;5078015;28;1095;-41
2023/10/23 01:32:39;;;;;;;;;;;;;;;26.90;36.15;100680.19;5065790;28;2231;-41
2023/10/23 01:35:05;;;;;;;;;;;;;;;26.99;36.07;100670.16;5077877;28;1003;-44
2023/10/23 01:37:30;;;;;;;;;;;;;;;26.95;36.33;100675.09;5059996;28;1087;-44
2023/10/23 01:39:56;;;;;;;;;;;;;;;26.84;36.25;100662.03;5049831;28;1501;-43
2023/10/23 01:42:21;;;;;;;;;;;;;;;26.97;36.16;100666.81;5058262;28;1905;-45
2023/10/23 01:44:47;;;;;;;;;;;;;;;26.84;36.39;100664.75;5045075;28;992;-43
2023/10/23 01:47:12;;;;;;;;;;;;;;;26.90;36.33;100667.56;5065036;28;1072;-43
2023/10/23 01:49:38;;;;;;;;;;;;;;;26.81;36.25;100668.63;5067816;28;983;-44
2023/10/23 01:52:03;;;;;;;;;;;;;;;26.88;35.99;100666.88;5053058;28;1135;-44
2023/10/23 01:54:29;;;;;;;;;;;;;;;26.95;36.29;100669.69;5067257;28;992;-42
2023/10/23 01:56:54;;;;;;;;;;;;;;;26.79;36.35;100668.00;5066777;28;1064;-42
2023/10/23 01:59:20;;;;;;;;;;;;;;;26.79;35.88;100673.41;5050125;28;1261;-41
2023/10/23 02:01:45;;;;;;;;;;;;;;;26.83;36.14;100671.16;5039807;28;1905;-42
2023/10/23 02:04:11;;;;;;;;;;;;;;;26.70;36.43;100674.47;5071384;28;2548;-43
2023/10/23 02:06:36;;;;;;;;;;;;;;;26.84;36.20;100683.63;5056854;28;1145;-42
2023/10/23 02:09:02;;;;;;;;;;;;;;;26.76;35.92;100673.72;5063483;28;1001;-42
2023/10/23 02:11:28;;;;;;;;;;;;;;;26.80;35.98;100680.47;5075131;28;1043;-43
2023/10/23 02:13:53;;;;;;;;;;;;;;;26.73;36.22;100685.75;5066509;28;1029;-44
2023/10/23 02:16:19;;;;;;;;;;;;;;;26.87;35.72;100685.97;5057427;28;1297;-43
2023/10/23 02:18:44;;;;;;;;;;;;;;;26.86;35.70;100692.41;5039677;28;1433;-44
2023/10/23 02:21:10;;;;;;;;;;;;;;;26.81;36.09;100687.53;5048211;28;1241;-43
2023/10/23 02:23:35;;;;;;;;;;;;;;;26.90;36.05;100688.28;5065730;28;1910;-43
2023/10/23 02:26:01;;;;;;;;;;;;;;;26.83;36.07;100698.13;5063882;28;1076;-43
2023/10/23 02:28:27;;;;;;;;;;;;;;;26.81;35.79;100695.63;5059307;28;1310;-44
2023/10/23 02:30:52;;;;;;;;;;;;;;;26.78;35.98;100696.84;5059124;28;1192;-42
2023/10/23 02:33:18;;;;;;;;;;;;;;;26.70;36.19;100698.75;5068605;28;1466;-44
2023/10/23 02:35:44;;;;;;;;;;;;;;;26.88;35.59;100703.81;5057904;28;1040;-43
2023/10/23 02:38:09;;;;;;;;;;;;;;;26.93;36.11;100698.72;5076526;28;1114;-43
2023/10/23 02:40:36;;;;;;;;;;;;;;;26.90;36.01;100704.50;5063581;28;1091;-42
2023/10/23 02:43:01;;;;;;;;;;;;;;;26.86;35.79;100701.31;5068285;28;1986;-43
2023/10/23 02:45:27;;;;;;;;;;;;;;;26.95;35.68;100701.25;5063740;28;1111;-43
2023/10/23 02:47:53;;;;;;;;;;;;;;;26.86;35.84;100709.41;5068292;28;1133;-44
2023/10/23 02:50:19;;;;;;;;;;;;;;;26.99;36.00;100703.38;5069970;28;1032;-44
2023/10/23 02:52:45;;;;;;;;;;;;;;;27.01;35.15;100703.19;5065380;28;1065;-43
2023/10/23 02:55:10;;;;;;;;;;;;;;;26.73;35.57;100704.63;5062073;28;1131;-44
2023/10/23 02:57:36;;;;;;;;;;;;;;;26.57;35.97;100702.91;5039658;28;1008;-44
2023/10/23 03:00:01;;;;;;;;;;;;;;;26.87;35.55;100702.16;5040629;28;1103;-42
2023/10/23 03:02:28;;;;;;;;;;;;;;;26.74;35.84;100694.69;5076362;28;1914;-43
2023/10/23 03:04:54;;;;;;;;;;;;;;;26.75;35.73;100704.44;5076040;28;2632;-42
2023/10/23 03:07:20;;;;;;;;;;;;;;;26.93;35.39;100709.53;5067833;28;1027;-43
2023/10/23 03:09:45;;;;;;;;;;;;;;;26.81;35.61;100703.72;5062593;28;1047;-43
2023/10/23 03:12:11;;;;;;;;;;;;;;;26.93;35.19;100703.28;5064700;28;1099;-44
2023/10/23 03:14:36;;;;;;;;;;;;;;;26.81;35.68;100700.19;5076144;28;1032;-44
2023/10/23 03:17:02;;;;;;;;;;;;;;;26.83;35.54;100708.94;5068090;28;1163;-44
2023/10/23 03:19:27;;;;;;;;;;;;;;;26.84;35.41;100708.75;5071338;28;1072;-43
2023/10/23 03:21:53;;;;;;;;;;;;;;;26.82;35.26;100716.22;5075883;28;1987;-42
2023/10/23 03:24:20;;;;;;;;;;;;;;;26.78;35.45;100712.19;5074310;28;1125;-43
2023/10/23 03:26:45;;;;;;;;;;;;;;;26.71;35.49;100711.25;5064789;28;1004;-42
2023/10/23 03:29:11;;;;;;;;;;;;;;;26.51;35.29;100709.84;5057849;28;1078;-43
2023/10/23 03:31:36;;;;;;;;;;;;;;;25.52;36.80;100706.63;5076636;28;1036;-42
2023/10/23 03:34:02;;;;;;;;;;;;;;;24.91;37.49;100718.66;5062160;28;1845;-42
2023/10/23 03:36:28;;;;;;;;;;;;;;;24.73;37.87;100720.63;5076059;28;1027;-44
2023/10/23 03:38:53;;;;;;;;;;;;;;;24.32;38.09;100706.16;5061591;28;1066;-45
2023/10/23 03:41:19;;;;;;;;;;;;;;;24.39;38.49;100717.91;5064446;28;1428;-45
2023/10/23 03:43:44;;;;;;;;;;;;;;;24.33;38.79;100719.44;5044771;28;1922;-42
2023/10/23 03:46:10;;;;;;;;;;;;;;;24.49;38.42;100723.13;5048813;28;1006;-44
2023/10/23 03:48:36;;;;;;;;;;;;;;;24.42;39.23;100716.75;5051402;28;1162;-43
2023/10/23 03:51:02;;;;;;;;;;;;;;;24.39;39.60;100723.28;5056005;28;1103;-40
2023/10/23 03:53:27;;;;;;;;;;;;;;;24.36;39.78;100712.88;5056170;28;1086;-34
2023/10/23 03:55:53;;;;;;;;;;;;;;;24.15;39.83;100722.22;5063526;28;1008;-42
2023/10/23 03:58:18;;;;;;;;;;;;;;;23.94;39.63;100701.16;5065916;28;1027;-39
2023/10/23 04:00:44;;;;;;;;;;;;;;;24.04;39.63;100712.59;5056027;28;1043;-37
2023/10/23 04:03:11;;;;;;;;;;;;;;;24.34;38.80;100720.25;5069547;28;2409;-38
2023/10/23 04:05:42;;;;;;;;;;;;;;;24.76;37.89;100696.09;5063912;28;1106;-37
2023/10/23 04:08:08;;;;;;;;;;;;;;;25.41;36.95;100713.19;5074104;28;1106;-40
2023/10/23 04:10:33;;;;;;;;;;;;;;;25.42;36.90;100708.66;5057649;28;913;-35
2023/10/23 04:12:58;;;;;;;;;;;;;;;25.50;36.64;100715.88;5069100;28;1157;-38
2023/10/23 04:15:24;;;;;;;;;;;;;;;25.11;38.32;100726.38;5066142;28;1056;-39
2023/10/23 04:17:50;;;;;;;;;;;;;;;25.08;37.82;100726.72;5060458;28;1274;-38
2023/10/23 04:20:16;;;;;;;;;;;;;;;25.34;36.89;100725.66;5059093;28;1140;-35
2023/10/23 04:22:41;;;;;;;;;;;;;;;25.56;36.10;100720.56;5062443;28;1909;-39
2023/10/23 04:25:07;;;;;;;;;;;;;;;25.67;35.86;100719.38;5066572;28;1004;-40
2023/10/23 04:27:33;;;;;;;;;;;;;;;25.59;35.80;100727.47;5071185;28;1114;-38
2023/10/23 04:30:01;;;;;;;;;;;;;;;25.61;35.68;100715.50;5066650;28;1072;-34
2023/10/23 04:32:27;;;;;;;;;;;;;;;25.67;35.56;100731.00;5070917;28;1066;-39
2023/10/23 04:34:53;;;;;;;;;;;;;;;25.58;35.85;100732.00;5066260;28;2630;-38
2023/10/23 04:37:18;;;;;;;;;;;;;;;25.73;35.85;100737.56;5074894;28;1186;-39
2023/10/23 04:39:44;;;;;;;;;;;;;;;25.58;36.04;100737.41;5064804;28;1064;-41
2023/10/23 04:42:09;;;;;;;;;;;;;;;25.74;35.99;100738.41;5055596;28;1886;-39
2023/10/23 04:44:35;;;;;;;;;;;;;;;25.91;35.55;100747.25;5065470;28;1088;-40
2023/10/23 04:47:00;;;;;;;;;;;;;;;25.86;35.60;100739.69;5064620;28;1025;-42
2023/10/23 04:49:26;;;;;;;;;;;;;;;25.84;35.56;100743.59;5064991;28;1039;-39
2023/10/23 04:51:51;;;;;;;;;;;;;;;25.66;36.23;100744.63;5067553;28;2297;-40
2023/10/23 04:54:17;;;;;;;;;;;;;;;25.50;37.16;100754.44;5073441;28;1094;-41
2023/10/23 04:56:42;;;;;;;;;;;;;;;25.14;38.04;100750.25;5074587;28;1134;-40
2023/10/23 04:59:08;;;;;;;;;;;;;;;24.51;39.46;100749.84;5063653;28;973;-38
2023/10/23 05:01:34;;;;;;;;;;;;;;;24.28;39.61;100756.72;5066235;28;1122;-39
2023/10/23 05:03:59;;;;;;;;;;;;;;;24.40;39.42;100761.78;5079524;28;1902;-41
2023/10/23 05:06:28;;;;;;;;;;;;;;;24.83;38.74;100767.06;5066391;28;1020;-41
2023/10/23 05:08:53;;;;;;;;;;;;;;;24.78;38.84;100764.88;5077708;28;1183;-40
2023/10/23 05:11:19;;;;;;;;;;;;;;;24.76;39.01;100768.72;5065374;28;1142;-39
2023/10/23 05:13:47;;;;;;;;;;;;;;;24.72;39.16;100770.06;5062109;28;1095;-40
2023/10/23 05:16:13;;;;;;;;;;;;;;;25.03;38.82;100773.00;5069640;28;1141;-39
2023/10/23 05:18:38;;;;;;;;;;;;;;;25.19;38.64;100780.22;5071873;28;1083;-39
2023/10/23 05:21:11;;;;;;;;;;;;;;;24.99;39.37;100784.25;5059314;28;1134;-43
2023/10/23 05:23:36;;;;;;;;;;;;;;;24.86;39.77;100777.47;5060601;28;1977;-41
2023/10/23 05:26:02;;;;;;;;;;;;;;;25.06;39.38;100779.88;5072486;28;1055;-42
2023/10/23 05:28:28;;;;;;;;;;;;;;;25.23;39.47;100772.63;5058762;28;1012;-41
2023/10/23 05:30:53;;;;;;;;;;;;;;;25.00;39.40;100777.84;5071163;28;2443;-41
2023/10/23 05:33:19;;;;;;;;;;;;;;;25.52;38.75;100776.66;5065227;28;2241;-44
2023/10/23 05:35:45;;;;;;;;;;;;;;;25.38;38.52;100780.88;5070237;28;1793;-42
2023/10/23 05:38:11;;;;;;;;;;;;;;;25.48;38.02;100779.84;5064973;28;2208;-40
2023/10/23 05:40:36;;;;;;;;;;;;;;;25.06;39.17;100780.72;5069471;28;1864;-39
2023/10/23 05:43:02;;;;;;;;;;;;;;;24.75;39.72;100786.72;5069888;28;2023;-41
2023/10/23 05:45:27;;;;;;;;;;;;;;;24.43;40.38;100786.50;5064930;28;1959;-41
2023/10/23 05:47:53;;;;;;;;;;;;;;;24.84;39.52;100795.63;5073198;28;1080;-39
2023/10/23 05:50:18;;;;;;;;;;;;;;;25.14;39.15;100797.91;5065771;28;1060;-40
2023/10/23 05:52:44;;;;;;;;;;;;;;;25.84;37.91;100776.72;5040630;28;1094;-39
2023/10/23 05:55:09;;;;;;;;;;;;;;;25.82;38.41;100799.50;5067772;28;1116;-39
2023/10/23 05:57:35;;;;;;;;;;;;;;;26.13;37.49;100804.94;5067034;28;1032;-37
2023/10/23 06:00:00;;;;;;;;;;;;;;;25.92;37.76;100809.03;5076946;28;881;-40
2023/10/23 06:02:26;;;;;;;;;;;;;;;25.75;38.87;100813.66;5069736;28;1902;-41
2023/10/23 06:04:52;;;;;;;;;;;;;;;25.51;39.17;100809.97;5071321;28;1076;-42
2023/10/23 06:07:17;;;;;;;;;;;;;;;25.55;38.84;100813.16;5057358;28;1500;-42
2023/10/23 06:09:43;;;;;;;;;;;;;;;25.22;39.31;100821.28;5057704;28;1132;-40
2023/10/23 06:12:11;;;;;;;;;;;;;;;25.90;37.85;100812.94;5062099;28;1309;-37
2023/10/23 06:14:37;;;;;;;;;;;;;;;26.21;37.80;100819.41;5065556;28;1021;-40
2023/10/23 06:17:02;;;;;;;;;;;;;;;26.42;37.95;100821.53;5060155;28;1046;-34
2023/10/23 06:19:31;;;;;;;;;;;;;;;26.47;36.84;100818.31;5077733;28;1056;-42
2023/10/23 06:21:57;;;;;;;;;;;;;;;26.37;37.13;100819.38;5074469;28;1952;-45
2023/10/23 06:24:22;;;;;;;;;;;;;;;26.60;37.46;100820.41;5057354;28;877;-42
2023/10/23 06:26:48;;;;;;;;;;;;;;;26.70;36.63;100809.38;5060069;28;1183;-42
2023/10/23 06:29:13;;;;;;;;;;;;;;;26.87;36.90;100819.06;5077533;28;1028;-43
2023/10/23 06:31:39;;;;;;;;;;;;;;;26.99;35.89;100819.47;5061689;28;1138;-42
2023/10/23 06:34:04;;;;;;;;;;;;;;;27.21;35.44;100822.34;5057540;28;1035;-43
2023/10/23 06:36:33;;;;;;;;;;;;;;;27.17;36.17;100820.22;5070595;28;913;-41
2023/10/23 06:38:58;;;;;;;;;;;;;;;27.25;36.16;100825.53;5066831;28;1175;-38
2023/10/23 06:41:24;;;;;;;;;;;;;;;27.33;36.06;100824.63;5074672;28;1167;-41
2023/10/23 06:43:49;;;;;;;;;;;;;;;27.49;35.33;100820.94;5057123;28;1906;-41
2023/10/23 06:46:15;;;;;;;;;;;;;;;27.56;35.38;100823.75;5064267;28;1992;-39
2023/10/23 06:48:44;;;;;;;;;;;;;;;27.67;34.91;100826.00;5065507;28;1057;-42
2023/10/23 06:51:10;;;;;;;;;;;;;;;27.18;35.59;100828.13;5060948;28;1078;-41
2023/10/23 06:53:36;;;;;;;;;;;;;;;27.10;36.00;100828.19;5072488;28;1036;-39
2023/10/23 06:56:01;;;;;;;;;;;;;;;27.14;35.98;100830.34;5068236;28;1107;-39
2023/10/23 06:58:26;;;;;;;;;;;;;;;27.44;35.40;100823.34;5056999;28;996;-41
2023/10/23 07:00:52;;;;;;;;;;;;;;;27.29;35.79;100828.72;5057200;28;946;-41
2023/10/23 07:03:18;;;;;;;;;;;;;;;27.04;36.18;100831.63;5069795;28;1902;-39
2023/10/23 07:05:51;;;;;;;;;;;;;;;27.32;35.79;100831.06;5066925;28;1329;-38
2023/10/23 07:08:16;;;;;;;;;;;;;;;27.16;35.77;100837.44;5072381;28;1313;-40
2023/10/23 07:10:42;;;;;;;;;;;;;;;27.30;35.41;100839.34;5057321;28;1040;-39
2023/10/23 07:13:07;;;;;;;;;;;;;;;27.45;35.44;100838.53;5057339;28;1075;-39
2023/10/23 07:15:33;;;;;;;;;;;;;;;27.30;35.53;100825.00;5068047;28;2339;-39
2023/10/23 07:17:59;;;;;;;;;;;;;;;27.35;35.65;100830.69;5058532;28;1425;-36
2023/10/23 07:20:25;;;;;;;;;;;;;;;27.48;35.06;100830.06;5056754;28;1056;-37
2023/10/23 07:22:50;;;;;;;;;;;;;;;27.52;35.14;100834.09;5059278;28;1980;-38
2023/10/23 07:25:16;;;;;;;;;;;;;;;27.34;35.51;100837.94;5067807;28;964;-39
2023/10/23 07:27:41;;;;;;;;;;;;;;;27.58;35.17;100838.75;5062838;28;1504;-39
2023/10/23 07:30:07;;;;;;;;;;;;;;;27.46;35.24;100832.13;5076522;28;1022;-41
2023/10/23 07:32:35;;;;;;;;;;;;;;;27.42;35.49;100838.91;5063101;28;1155;-38
2023/10/23 07:35:01;;;;;;;;;;;;;;;27.55;35.13;100839.13;5075632;28;1182;-39
2023/10/23 07:37:27;;;;;;;;;;;;;;;27.52;35.11;100836.78;5063604;28;1094;-39
2023/10/23 07:39:53;;;;;;;;;;;;;;;27.73;34.82;100830.69;5062774;28;996;-40
2023/10/23 07:42:18;;;;;;;;;;;;;;;27.89;34.65;100828.84;5063479;28;2050;-37
2023/10/23 07:44:44;;;;;;;;;;;;;;;27.86;34.36;100826.50;5057516;28;1080;-37
2023/10/23 07:47:09;;;;;;;;;;;;;;;28.09;33.86;100828.28;5058900;28;2220;-39
2023/10/23 07:49:35;;;;;;;;;;;;;;;28.26;33.45;100836.19;5069252;28;1199;-40
2023/10/23 07:52:00;;;;;;;;;;;;;;;28.22;33.85;100831.16;5068872;28;1024;-39
2023/10/23 07:54:26;;;;;;;;;;;;;;;28.47;33.19;100821.88;5058809;28;1113;-40
2023/10/23 07:56:55;;;;;;;;;;;;;;;28.55;33.36;100823.63;5056678;28;1094;-40
2023/10/23 07:59:21;;;;;;;;;;;;;;;28.61;33.14;100828.31;5058199;28;1086;-38
2023/10/23 08:01:47;;;;;;;;;;;;;;;28.64;33.03;100825.22;5072808;28;1060;-38
2023/10/23 08:04:13;;;;;;;;;;;;;;;28.66;32.83;100817.72;5058126;28;1278;-40
2023/10/23 08:06:38;;;;;;;;;;;;;;;28.75;32.80;100823.84;5062901;28;1313;-38
2023/10/23 08:09:04;;;;;;;;;;;;;;;28.82;32.97;100823.91;5069639;28;1051;-41
2023/10/23 08:11:30;;;;;;;;;;;;;;;28.93;32.59;100812.56;5066805;28;1372;-36
2023/10/23 08:13:55;;;;;;;;;;;;;;;28.99;32.73;100821.84;5064526;28;1313;-44
2023/10/23 08:16:21;;;;;;;;;;;;;;;28.88;32.72;100815.03;5075489;28;1134;-43
2023/10/23 08:18:46;;;;;;;;;;;;;;;28.81;32.92;100819.56;5076045;28;1260;-41
2023/10/23 08:21:13;;;;;;;;;;;;;;;28.72;33.06;100821.53;5076287;28;1391;-43
2023/10/23 08:23:41;;;;;;;;;;;;;;;28.61;33.12;100820.19;5075526;28;1981;-44
2023/10/23 08:26:07;;;;;;;;;;;;;;;28.87;32.82;100816.06;5061635;28;1249;-39
2023/10/23 08:28:33;;;;;;;;;;;;;;;29.28;32.22;100819.16;5071895;28;1111;-42
2023/10/23 08:30:58;;;;;;;;;;;;;;;29.48;31.94;100819.28;5066268;28;1184;-46
2023/10/23 08:33:24;;;;;;;;;;;;;;;29.85;30.10;100821.84;5074056;28;1087;-43
2023/10/23 08:35:49;;;;;;;;;;;;;;;29.90;29.48;100816.66;5073293;28;1118;-36
2023/10/23 08:38:15;;;;;;;;;;;;;;;29.80;28.70;100811.59;5065450;28;1048;-45
2023/10/23 08:40:40;;;;;;;;;;;;;;;30.16;28.19;100809.69;5078414;28;1269;-44
2023/10/23 08:43:06;;;;;;;;;;;;;;;30.11;28.39;100811.34;5056934;28;1906;-45
2023/10/23 08:45:32;;;;;;;;;;;;;;;30.33;27.85;100814.78;5041406;28;1080;-46
2023/10/23 08:47:57;;;;;;;;;;;;;;;29.20;30.16;100818.25;5075719;28;1082;-43
2023/10/23 08:50:23;;;;;;;;;;;;;;;28.31;31.08;100820.22;5075975;28;1048;-40
2023/10/23 08:52:49;;;;;;;;;;;;;;;29.31;29.27;100806.03;5079291;28;1130;-47
2023/10/23 08:55:15;;;;;;;;;;;;;;;29.18;29.94;100814.91;5074536;28;1191;-45
2023/10/23 08:57:47;;;;;;;;;;;;;;;30.04;27.91;100811.31;5066493;28;1112;-46
2023/10/23 09:00:13;;;;;;;;;;;;;;;29.69;28.67;100806.75;5077712;28;989;-45
2023/10/23 09:02:38;;;;;;;;;;;;;;;29.70;28.36;100808.41;5071546;28;1977;-46
2023/10/23 09:05:04;;;;;;;;;;;;;;;28.92;28.16;100812.75;5078803;28;1301;-34
2023/10/23 09:07:29;;;;;;;;;;;;;;;29.40;27.86;100806.75;5078218;28;1301;-35
2023/10/23 09:09:59;;;;;;;;;;;;;;;28.94;28.03;100805.28;5057532;28;1094;-35
2023/10/23 09:12:31;;;;;;;;;;;;;;;28.82;28.10;100807.69;5075561;28;1162;-35
2023/10/23 09:14:57;;;;;;;;;;;;;;;29.39;27.71;100815.91;5069484;28;1020;-34
2023/10/23 09:17:23;;;;;;;;;;;;;;;29.41;27.59;100804.88;5061827;28;1127;-35
2023/10/23 09:19:48;;;;;;;;;;;;;;;29.50;27.10;100805.53;5070270;28;1043;-35
2023/10/23 09:22:14;;;;;;;;;;;;;;;29.58;26.79;100798.09;5074534;28;1963;-41
2023/10/23 09:24:39;;;;;;;;;;;;;;;29.93;26.56;100801.84;5067276;28;1356;-44
2023/10/23 09:27:05;;;;;;;;;;;;;;;30.21;26.19;100798.28;5078726;28;1011;-43
2023/10/23 09:29:30;;;;;;;;;;;;;;;30.39;25.76;100796.84;5076914;28;1403;-44
2023/10/23 09:31:59;;;;;;;;;;;;;;;30.89;25.50;100790.28;5079094;28;1055;-44
2023/10/23 09:34:25;;;;;;;;;;;;;;;30.91;25.40;100790.94;5077177;28;1111;-41
2023/10/23 09:36:50;;;;;;;;;;;;;;;31.14;25.25;100790.50;5061860;28;1218;-43
2023/10/23 09:39:16;;;;;;;;;;;;;;;30.05;27.22;100786.69;5073143;28;1040;-41
2023/10/23 09:41:41;;;;;;;;;;;;;;;30.67;26.50;100777.72;5071674;28;1055;-44
2023/10/23 09:44:07;;;;;;;;;;;;;;;30.42;26.81;100781.00;5059501;28;1905;-44
2023/10/23 09:46:32;;;;;;;;;;;;;;;30.74;26.03;100777.72;5070642;28;1051;-46
2023/10/23 09:49:04;;;;;;;;;;;;;;;30.60;26.72;100768.72;5040503;28;1148;-43
2023/10/23 09:51:32;;;;;;;;;;;;;;;30.68;26.63;100760.38;5063441;28;1123;-44
2023/10/23 09:54:01;;;;;;;;;;;;;;;30.23;27.35;100766.31;5069212;28;1159;-45
2023/10/23 09:56:28;;;;;;;;;;;;;;;24.19;37.63;100757.72;5064376;28;1333;-36
2023/10/23 09:58:57;;;;;;;;;;;;;;;22.07;42.36;100756.31;5073488;28;1106;-39
2023/10/23 10:01:25;;;;;;;;;;;;;;;21.28;44.38;100752.06;5073301;28;1297;-39
2023/10/23 10:03:50;;;;;;;;;;;;;;;20.79;45.46;100757.38;5047644;28;1919;-41
2023/10/23 10:06:17;;;;;;;;;;;;;;;20.64;46.40;100751.59;5043162;28;1214;-39
2023/10/23 10:08:43;;;;;;;;;;;;;;;20.51;46.71;100733.16;5041407;28;1147;-38
2023/10/23 10:11:09;;;;;;;;;;;;;;;20.43;47.37;100740.06;5075727;28;1193;-41
2023/10/23 10:13:35;;;;;;;;;;;;;;;20.43;47.58;100732.03;5048648;28;1230;-43
2023/10/23 10:16:01;;;;;;;;;;;;;;;20.62;47.95;100730.34;5047728;28;1097;-45
2023/10/23 10:18:26;;;;;;;;;;;;;;;20.65;47.89;100722.06;5073697;28;1111;-38
2023/10/23 10:20:53;;;;;;;;;;;;;;;20.60;48.32;100728.81;5055311;28;1039;-43
2023/10/23 10:23:19;;;;;;;;;;;;;;;20.46;48.81;100724.72;5064118;28;1902;-41
2023/10/23 10:25:45;;;;;;;;;;;;;;;20.28;49.22;100723.59;5047280;28;1326;-38
2023/10/23 10:28:11;;;;;;;;;;;;;;;20.14;49.63;100722.13;5052024;28;1126;-37
2023/10/23 10:30:37;;;;;;;;;;;;;;;23.24;41.96;100714.53;5044024;28;1127;-37
2023/10/23 10:33:03;;;;;;;;;;;;;;;25.89;36.04;100715.06;5066650;28;1282;-38
2023/10/23 10:35:28;;;;;;;;;;;;;;;26.82;34.30;100718.91;5050519;28;1153;-41
2023/10/23 10:37:58;;;;;;;;;;;;;;;27.27;33.45;100723.59;5047430;28;848;-38
2023/10/23 10:40:24;;;;;;;;;;;;;;;27.60;32.97;100722.38;5057845;28;1083;-41
2023/10/23 10:42:50;;;;;;;;;;;;;;;27.36;32.53;100718.94;5057661;28;1906;-40
2023/10/23 10:45:16;;;;;;;;;;;;;;;27.92;30.64;100722.19;5063389;28;1289;-37
2023/10/23 10:47:45;;;;;;;;;;;;;;;28.19;29.25;100715.22;5063979;28;1159;-37
2023/10/23 10:50:10;;;;;;;;;;;;;;;28.22;28.54;100714.84;5057205;28;1140;-35
2023/10/23 10:52:36;;;;;;;;;;;;;;;28.30;28.65;100716.59;5057013;28;1146;-37
2023/10/23 10:55:02;;;;;;;;;;;;;;;28.54;28.58;100711.88;5070588;28;1204;-36
2023/10/23 10:57:27;;;;;;;;;;;;;;;28.69;27.93;100705.53;5064122;28;1143;-35
2023/10/23 10:59:59;;;;;;;;;;;;;;;28.54;28.13;100706.44;5058308;28;1131;-36
2023/10/23 11:02:24;;;;;;;;;;;;;;;28.84;29.25;100714.38;5073207;28;1910;-36
2023/10/23 11:04:50;;;;;;;;;;;;;;;29.04;28.25;100710.22;5063308;28;1079;-43
2023/10/23 11:07:25;;;;;;;;;;;;;;;29.11;29.19;100702.13;5068402;28;1082;-43
2023/10/23 11:09:51;;;;;;;;;;;;;;;29.16;27.37;100700.50;5063145;28;1158;-43
2023/10/23 11:12:18;;;;;;;;;;;;;;;29.24;27.69;100694.09;5077110;28;1011;-42
2023/10/23 11:14:43;;;;;;;;;;;;;;;29.34;27.22;100691.03;5071726;28;853;-39
2023/10/23 11:17:09;;;;;;;;;;;;;;;29.42;27.23;100695.44;5061028;28;1138;-42
2023/10/23 11:19:34;;;;;;;;;;;;;;;29.49;28.13;100688.19;5058761;28;1118;-43
2023/10/23 11:22:10;;;;;;;;;;;;;;;29.64;27.67;100688.09;5076916;28;1910;-43
2023/10/23 11:24:35;;;;;;;;;;;;;;;29.17;27.07;100691.34;5076806;28;1074;-40
2023/10/23 11:27:01;;;;;;;;;;;;;;;27.00;31.05;100694.28;5062282;28;860;-39
2023/10/23 11:29:26;;;;;;;;;;;;;;;22.27;40.24;100686.56;5066734;28;1201;-38
2023/10/23 11:31:52;;;;;;;;;;;;;;;20.71;44.68;100685.91;5066465;28;1281;-36
2023/10/23 11:34:17;;;;;;;;;;;;;;;20.82;46.50;100684.09;5069788;28;1048;-37
2023/10/23 11:36:43;;;;;;;;;;;;;;;20.67;47.41;100680.00;5056484;28;1122;-43
2023/10/23 11:39:09;;;;;;;;;;;;;;;20.54;47.12;100688.31;5069434;28;968;-41
2023/10/23 11:41:34;;;;;;;;;;;;;;;20.38;47.86;100686.19;5066617;28;1194;-40
2023/10/23 11:44:00;;;;;;;;;;;;;;;20.33;48.59;100680.41;5058953;28;2015;-39
2023/10/23 11:46:26;;;;;;;;;;;;;;;20.23;49.75;100679.56;5056702;28;1049;-38
2023/10/23 11:48:52;;;;;;;;;;;;;;;21.09;47.79;100670.00;5039254;28;1218;-41
2023/10/23 11:51:17;;;;;;;;;;;;;;;24.57;39.42;100673.91;5076252;28;1011;-47
2023/10/23 11:53:43;;;;;;;;;;;;;;;25.81;34.11;100672.00;5060176;28;1163;-44
2023/10/23 11:56:08;;;;;;;;;;;;;;;25.17;33.05;100673.72;5038834;28;1156;-44
2023/10/23 11:58:34;;;;;;;;;;;;;;;24.94;32.70;100669.88;5073033;28;1040;-45
2023/10/23 12:01:00;;;;;;;;;;;;;;;24.90;32.42;100670.38;5056955;28;1072;-41
2023/10/23 12:03:25;;;;;;;;;;;;;;;24.80;32.21;100665.16;5069245;28;1996;-40
2023/10/23 12:05:51;;;;;;;;;;;;;;;25.71;30.80;100669.53;5068214;28;980;-42
2023/10/23 12:08:16;;;;;;;;;;;;;;;26.80;29.65;100677.75;5070743;28;1035;-40
2023/10/23 12:10:42;;;;;;;;;;;;;;;27.20;29.39;100679.41;5067672;28;1036;-42
2023/10/23 12:13:07;;;;;;;;;;;;;;;27.36;29.55;100668.44;5070803;28;1062;-40
2023/10/23 12:15:33;;;;;;;;;;;;;;;27.45;29.08;100676.44;5067938;28;1088;-41
2023/10/23 12:18:03;;;;;;;;;;;;;;;27.43;30.79;100671.22;5070805;28;1147;-41
2023/10/23 12:20:29;;;;;;;;;;;;;;;27.35;30.73;100671.31;5068508;28;1040;-39
2023/10/23 12:22:55;;;;;;;;;;;;;;;27.52;31.03;100677.38;5069884;28;2001;-36
2023/10/23 12:25:20;;;;;;;;;;;;;;;27.41;31.34;100677.84;5055870;28;1080;-42
2023/10/23 12:27:46;;;;;;;;;;;;;;;27.58;31.16;100675.78;5069262;28;1059;-39
2023/10/23 12:30:11;;;;;;;;;;;;;;;27.76;31.15;100686.22;5067996;28;1074;-36
2023/10/23 12:32:39;;;;;;;;;;;;;;;27.69;31.33;100685.31;5056518;28;1111;-40
2023/10/23 12:35:04;;;;;;;;;;;;;;;27.58;32.00;100689.28;5069517;28;1040;-39
2023/10/23 12:37:30;;;;;;;;;;;;;;;27.90;31.82;100680.97;5056359;28;1112;-39
2023/10/23 12:39:57;;;;;;;;;;;;;;;27.84;31.81;100690.69;5058579;28;1088;-39